sensor_id;sensor_type;location;lat;lon;timestamp;pressure;altitude;pressure_sealevel;temperature;humidity
38191;BME280;25191;47.510;19.124;2023-04-27T00:12:53;100485.34;;;21.98;42.67
38191;BME280;25191;47.510;19.124;2023-04-27T00:32:55;100485.47;;;21.96;42.49
38191;BME280;25191;47.510;19.124;2023-04-27T00:52:56;100491.81;;;21.94;42.47
38191;BME280;25191;47.510;19.124;2023-04-27T01:12:56;100486.91;;;21.89;42.80
38191;BME280;25191;47.510;19.124;2023-04-27T01:32:56;100497.94;;;21.83;42.64
38191;BME280;25191;47.510;19.124;2023-04-27T01:52:57;100507.75;;;21.81;42.55
38191;BME280;25191;47.510;19.124;2023-04-27T02:12:57;100517.94;;;21.74;42.47
38191;BME280;25191;47.510;19.124;2023-04-27T02:33:00;100528.50;;;21.74;42.36
38191;BME280;25191;47.510;19.124;2023-04-27T02:53:01;100543.56;;;21.72;42.09
38191;BME280;25191;47.510;19.124;2023-04-27T03:13:01;100556.16;;;21.68;42.22
38191;BME280;25191;47.510;19.124;2023-04-27T03:33:03;100572.19;;;21.65;42.06
38191;BME280;25191;47.510;19.124;2023-04-27T03:53:03;100588.59;;;21.69;42.03
38191;BME280;25191;47.510;19.124;2023-04-27T04:13:03;100600.22;;;21.66;42.28
38191;BME280;25191;47.510;19.124;2023-04-27T04:33:03;100624.66;;;21.68;42.97
38191;BME280;25191;47.510;19.124;2023-04-27T04:53:05;100631.88;;;21.78;44.50
38191;BME280;25191;47.510;19.124;2023-04-27T05:13:06;100650.69;;;21.73;43.25
38191;BME280;25191;47.510;19.124;2023-04-27T05:33:06;100668.53;;;21.69;42.13
38191;BME280;25191;47.510;19.124;2023-04-27T05:53:06;100682.66;;;21.68;41.22
38191;BME280;25191;47.510;19.124;2023-04-27T06:13:08;100694.53;;;21.74;42.48
38191;BME280;25191;47.510;19.124;2023-04-27T06:33:08;100704.50;;;21.82;42.44
38191;BME280;25191;47.510;19.124;2023-04-27T06:53:08;100703.41;;;21.84;43.05
38191;BME280;25191;47.510;19.124;2023-04-27T07:13:09;100705.84;;;21.87;42.82
38191;BME280;25191;47.510;19.124;2023-04-27T07:33:09;100720.59;;;21.90;42.80
38191;BME280;25191;47.510;19.124;2023-04-27T07:53:10;100718.56;;;21.94;42.76
38191;BME280;25191;47.510;19.124;2023-04-27T08:13:10;100718.31;;;21.97;43.54
38191;BME280;25191;47.510;19.124;2023-04-27T08:33:10;100720.59;;;22.01;43.02
38191;BME280;25191;47.510;19.124;2023-04-27T08:53:17;100711.50;;;22.05;42.97
38191;BME280;25191;47.510;19.124;2023-04-27T09:13:20;100701.47;;;22.11;42.48
38191;BME280;25191;47.510;19.124;2023-04-27T09:33:24;100689.94;;;22.12;42.86
38191;BME280;25191;47.510;19.124;2023-04-27T09:53:26;100685.50;;;22.12;42.13
38191;BME280;25191;47.510;19.124;2023-04-27T10:13:30;100659.38;;;22.20;42.52
38191;BME280;25191;47.510;19.124;2023-04-27T10:33:40;100654.22;;;22.30;42.61
38191;BME280;25191;47.510;19.124;2023-04-27T10:53:41;100655.44;;;22.37;40.14
38191;BME280;25191;47.510;19.124;2023-04-27T11:13:47;100642.25;;;22.37;36.67
38191;BME280;25191;47.510;19.124;2023-04-27T11:33:48;100639.84;;;22.46;36.76
38191;BME280;25191;47.510;19.124;2023-04-27T11:53:48;100626.16;;;22.29;29.45
38191;BME280;25191;47.510;19.124;2023-04-27T12:13:51;100630.63;;;22.51;32.50
38191;BME280;25191;47.510;19.124;2023-04-27T12:33:51;100611.16;;;22.64;33.07
38191;BME280;25191;47.510;19.124;2023-04-27T12:53:53;100604.38;;;22.82;34.05
38191;BME280;25191;47.510;19.124;2023-04-27T13:13:53;100614.22;;;22.92;33.07
38191;BME280;25191;47.510;19.124;2023-04-27T13:33:56;100607.09;;;23.03;32.65
38191;BME280;25191;47.510;19.124;2023-04-27T13:54:00;100608.53;;;23.08;32.58
38191;BME280;25191;47.510;19.124;2023-04-27T14:14:00;100613.56;;;23.11;32.88
38191;BME280;25191;47.510;19.124;2023-04-27T14:34:00;100612.06;;;23.29;33.57
38191;BME280;25191;47.510;19.124;2023-04-27T14:54:01;100616.41;;;23.52;32.26
38191;BME280;25191;47.510;19.124;2023-04-27T15:14:04;100620.06;;;24.03;30.04
38191;BME280;25191;47.510;19.124;2023-04-27T15:34:04;100625.91;;;24.68;27.99
38191;BME280;25191;47.510;19.124;2023-04-27T15:54:05;100611.00;;;25.16;25.06
38191;BME280;25191;47.510;19.124;2023-04-27T16:14:05;100609.19;;;24.37;20.16
38191;BME280;25191;47.510;19.124;2023-04-27T16:34:06;100632.38;;;23.92;23.73
38191;BME280;25191;47.510;19.124;2023-04-27T16:54:06;100636.50;;;23.85;28.53
38191;BME280;25191;47.510;19.124;2023-04-27T17:14:06;100652.22;;;23.65;30.09
38191;BME280;25191;47.510;19.124;2023-04-27T17:34:07;100660.03;;;23.46;32.11
38191;BME280;25191;47.510;19.124;2023-04-27T17:54:07;100689.72;;;23.38;33.23
38191;BME280;25191;47.510;19.124;2023-04-27T18:14:08;100697.22;;;23.33;33.73
38191;BME280;25191;47.510;19.124;2023-04-27T18:34:09;100728.94;;;23.22;33.83
38191;BME280;25191;47.510;19.124;2023-04-27T18:54:10;100744.41;;;23.15;34.69
38191;BME280;25191;47.510;19.124;2023-04-27T19:14:11;100758.13;;;22.97;35.74
38191;BME280;25191;47.510;19.124;2023-04-27T19:34:11;100776.72;;;22.96;35.96
38191;BME280;25191;47.510;19.124;2023-04-27T19:54:13;100770.97;;;22.91;36.28
38191;BME280;25191;47.510;19.124;2023-04-27T20:14:13;100770.63;;;22.84;36.94
38191;BME280;25191;47.510;19.124;2023-04-27T20:34:14;100775.66;;;22.76;37.42
38191;BME280;25191;47.510;19.124;2023-04-27T20:54:22;100781.03;;;22.63;37.41
38191;BME280;25191;47.510;19.124;2023-04-27T21:14:23;100795.31;;;22.60;37.98
38191;BME280;25191;47.510;19.124;2023-04-27T21:34:23;100806.47;;;22.64;38.31
38191;BME280;25191;47.510;19.124;2023-04-27T21:54:23;100820.28;;;22.56;38.34
38191;BME280;25191;47.510;19.124;2023-04-27T22:14:25;100830.69;;;22.46;38.97
38191;BME280;25191;47.510;19.124;2023-04-27T22:34:25;100841.81;;;22.38;38.92
38191;BME280;25191;47.510;19.124;2023-04-27T22:54:26;100853.53;;;22.34;39.16
38191;BME280;25191;47.510;19.124;2023-04-27T23:14:27;100856.63;;;22.28;39.00
38191;BME280;25191;47.510;19.124;2023-04-27T23:34:28;100859.47;;;22.25;39.16
38191;BME280;25191;47.510;19.124;2023-04-27T23:54:30;100857.22;;;22.20;39.03
